createdAt,value
2022-12-23T00:01:24.171Z,100319.50
2022-12-23T00:03:51.232Z,100321.09
2022-12-23T00:06:19.771Z,100312.09
2022-12-23T00:08:46.939Z,100328.00
2022-12-23T00:11:17.009Z,100331.94
2022-12-23T00:14:05.557Z,100337.41
2022-12-23T00:16:35.838Z,100347.94
2022-12-23T00:19:02.785Z,100345.50
2022-12-23T00:21:29.546Z,100351.00
2022-12-23T00:23:56.332Z,100363.91
2022-12-23T00:26:24.810Z,100370.25
2022-12-23T00:28:55.628Z,100366.53
2022-12-23T00:31:22.521Z,100373.94
2022-12-23T00:33:51.631Z,100372.47
2022-12-23T00:36:21.108Z,100362.69
2022-12-23T00:39:11.534Z,100390.25
2022-12-23T00:41:57.447Z,100394.59
2022-12-23T00:44:25.853Z,100400.53
2022-12-23T00:46:52.843Z,100402.34
2022-12-23T00:49:39.243Z,100399.31
2022-12-23T00:52:07.836Z,100394.59
2022-12-23T00:54:34.731Z,100392.97
2022-12-23T00:57:02.267Z,100401.69
2022-12-23T00:59:30.513Z,100403.56
2022-12-23T01:02:16.012Z,100405.91
2022-12-23T01:05:01.346Z,100413.53
2022-12-23T01:07:28.286Z,100413.28
2022-12-23T01:09:55.153Z,100410.50
2022-12-23T01:12:22.042Z,100413.28
2022-12-23T01:14:50.346Z,100415.59
2022-12-23T01:17:17.343Z,100418.06
2022-12-23T01:19:44.264Z,100416.66
2022-12-23T01:22:11.052Z,100422.91
2022-12-23T01:24:37.752Z,100424.91
2022-12-23T01:27:04.510Z,100431.13
2022-12-23T01:29:31.328Z,100432.06
2022-12-23T01:31:59.489Z,100440.84
2022-12-23T01:34:31.087Z,100438.00
2022-12-23T01:37:01.248Z,100434.91
2022-12-23T01:39:28.287Z,100453.22
2022-12-23T01:42:13.826Z,100444.53
2022-12-23T01:44:54.019Z,100447.06
2022-12-23T01:47:29.503Z,100443.69
2022-12-23T01:50:00.490Z,100464.84
2022-12-23T01:52:27.941Z,100480.78
2022-12-23T01:54:56.474Z,100468.59
2022-12-23T01:57:24.554Z,100477.78
2022-12-23T02:00:10.487Z,100488.25
2022-12-23T02:02:59.893Z,100488.09
2022-12-23T02:05:27.332Z,100495.16
2022-12-23T02:08:13.662Z,100488.09
2022-12-23T02:11:00.231Z,100503.94
2022-12-23T02:13:35.009Z,100493.53
2022-12-23T02:16:17.884Z,100506.66
2022-12-23T02:19:01.024Z,100505.25
2022-12-23T02:22:05.192Z,100504.28
2022-12-23T02:25:00.542Z,100509.69
2022-12-23T02:27:30.242Z,100509.56
2022-12-23T02:30:24.140Z,100517.91
2022-12-23T02:33:16.953Z,100520.38
2022-12-23T02:35:53.483Z,100523.00
2022-12-23T02:38:26.535Z,100534.44
2022-12-23T02:41:01.993Z,100534.53
2022-12-23T02:43:35.626Z,100538.88
2022-12-23T02:46:07.809Z,100546.75
2022-12-23T02:48:42.317Z,100544.09
2022-12-23T02:51:13.660Z,100548.78
2022-12-23T02:53:45.956Z,100556.06
2022-12-23T02:56:15.423Z,100556.34
2022-12-23T02:58:47.181Z,100541.13
2022-12-23T03:01:16.409Z,100567.94
2022-12-23T03:03:47.559Z,100570.50
2022-12-23T03:06:20.596Z,100570.75
2022-12-23T03:08:49.729Z,100571.78
2022-12-23T03:11:18.008Z,100574.69
2022-12-23T03:14:12.733Z,100570.56
2022-12-23T03:16:51.945Z,100571.50
2022-12-23T03:19:26.597Z,100567.13
2022-12-23T03:21:59.971Z,100570.75
2022-12-23T03:24:37.635Z,100575.16
2022-12-23T03:27:09.823Z,100574.56
2022-12-23T03:29:42.774Z,100578.06
2022-12-23T03:32:12.416Z,100574.69
2022-12-23T03:34:43.303Z,100583.34
2022-12-23T03:37:13.499Z,100576.53
2022-12-23T03:39:43.773Z,100578.44
2022-12-23T03:42:19.331Z,100576.91
2022-12-23T03:45:19.039Z,100575.78
2022-12-23T03:47:44.815Z,100584.56
2022-12-23T03:50:16.843Z,100576.53
2022-12-23T03:52:51.669Z,100576.53
2022-12-23T03:55:23.514Z,100577.31
2022-12-23T03:57:58.129Z,100577.69
2022-12-23T04:00:28.953Z,100583.72
2022-12-23T04:03:03.720Z,100580.16
2022-12-23T04:05:35.086Z,100585.50
2022-12-23T04:08:10.357Z,100594.28
2022-12-23T04:10:37.464Z,100598.63
2022-12-23T04:13:04.780Z,100598.63
2022-12-23T04:15:32.023Z,100610.88
2022-12-23T04:17:59.259Z,100596.34
2022-12-23T04:20:26.141Z,100599.00
2022-12-23T04:22:54.332Z,100612.78
2022-12-23T04:25:21.117Z,100619.00
2022-12-23T04:27:47.958Z,100626.00
2022-12-23T04:30:15.206Z,100628.38
2022-12-23T04:32:42.448Z,100630.25
2022-12-23T04:35:11.140Z,100628.38
2022-12-23T04:37:38.344Z,100624.09
2022-12-23T04:40:07.954Z,100631.97
2022-12-23T04:42:34.607Z,100632.72
2022-12-23T04:45:01.404Z,100622.94
2022-12-23T04:47:28.252Z,100619.31
2022-12-23T04:49:55.080Z,100620.34
2022-12-23T04:52:22.104Z,100613.22
2022-12-23T04:54:48.999Z,100610.63
2022-12-23T04:57:17.506Z,100603.81
2022-12-23T04:59:44.397Z,100608.25
2022-12-23T05:02:11.805Z,100601.28
2022-12-23T05:04:38.739Z,100595.50
2022-12-23T05:07:05.513Z,100592.53
2022-12-23T05:09:32.528Z,100595.34
2022-12-23T05:11:59.561Z,100586.06
2022-12-23T05:14:27.916Z,100591.09
2022-12-23T05:16:54.728Z,100591.75
2022-12-23T05:19:21.638Z,100587.75
2022-12-23T05:21:48.509Z,100594.13
2022-12-23T05:24:15.363Z,100596.69
2022-12-23T05:26:47.619Z,100589.03
2022-12-23T05:29:14.846Z,100598.06
2022-12-23T05:31:43.404Z,100604.63
2022-12-23T05:34:10.376Z,100614.03
2022-12-23T05:36:37.833Z,100631.44
2022-12-23T05:39:04.699Z,100621.56
2022-12-23T05:41:31.820Z,100619.25
2022-12-23T05:43:58.544Z,100627.00
2022-12-23T05:46:27.055Z,100629.41
2022-12-23T05:48:55.545Z,100630.81
2022-12-23T05:51:22.320Z,100636.00
2022-12-23T05:53:49.369Z,100633.19
2022-12-23T05:56:16.427Z,100627.81
2022-12-23T05:58:43.628Z,100622.44
2022-12-23T06:01:10.615Z,100612.03
2022-12-23T06:03:37.535Z,100625.75
2022-12-23T06:06:06.323Z,100623.06
2022-12-23T06:08:33.228Z,100623.22
2022-12-23T06:11:00.080Z,100630.97
2022-12-23T06:13:26.884Z,100630.88
2022-12-23T06:15:53.928Z,100629.94
2022-12-23T06:18:20.859Z,100635.16
2022-12-23T06:20:48.515Z,100634.38
2022-12-23T06:23:16.677Z,100637.94
2022-12-23T06:25:43.485Z,100638.97
2022-12-23T06:28:10.409Z,100647.56
2022-12-23T06:30:37.239Z,100637.78
2022-12-23T06:33:04.213Z,100651.94
2022-12-23T06:35:30.968Z,100645.97
2022-12-23T06:37:57.821Z,100659.25
2022-12-23T06:40:26.017Z,100652.09
2022-12-23T06:42:52.855Z,100653.66
2022-12-23T06:45:20.993Z,100656.19
2022-12-23T06:47:47.839Z,100652.50
2022-12-23T06:50:14.832Z,100658.59
2022-12-23T06:52:41.735Z,100653.13
2022-12-23T06:55:10.017Z,100653.47
2022-12-23T06:57:38.281Z,100650.03
2022-12-23T07:00:06.041Z,100651.94
2022-12-23T07:02:33.294Z,100648.69
2022-12-23T07:05:00.329Z,100656.03
2022-12-23T07:07:27.405Z,100661.88
2022-12-23T07:09:54.212Z,100666.19
2022-12-23T07:12:21.044Z,100673.94
2022-12-23T07:14:49.151Z,100677.25
2022-12-23T07:17:16.143Z,100669.31
2022-12-23T07:19:42.865Z,100671.78
2022-12-23T07:22:12.310Z,100666.34
2022-12-23T07:24:38.985Z,100673.41
2022-12-23T07:27:05.756Z,100667.50
2022-12-23T07:29:32.480Z,100670.84
2022-12-23T07:32:01.735Z,100669.84
2022-12-23T07:34:28.605Z,100664.56
2022-12-23T07:36:55.742Z,100660.25
2022-12-23T07:39:22.606Z,100662.16
2022-12-23T07:41:55.494Z,100662.91
2022-12-23T07:44:30.713Z,100668.19
2022-12-23T07:46:57.499Z,100670.75
2022-12-23T07:49:25.611Z,100675.38
2022-12-23T07:51:52.336Z,100677.16
2022-12-23T07:54:19.247Z,100673.66
2022-12-23T07:56:46.060Z,100671.97
2022-12-23T07:59:12.909Z,100665.91
2022-12-23T08:01:40.260Z,100655.84
2022-12-23T08:04:07.111Z,100656.53
2022-12-23T08:06:36.796Z,100652.00
2022-12-23T08:09:03.609Z,100654.47
2022-12-23T08:11:30.359Z,100657.91
2022-12-23T08:13:57.219Z,100660.38
2022-12-23T08:16:24.321Z,100661.97
2022-12-23T08:18:51.080Z,100653.97
2022-12-23T08:21:20.002Z,100638.94
2022-12-23T08:23:48.718Z,100637.09
2022-12-23T08:26:20.002Z,100639.63
2022-12-23T08:28:48.012Z,100626.25
2022-12-23T08:31:17.296Z,100629.69
2022-12-23T08:33:46.431Z,100635.81
2022-12-23T08:36:19.235Z,100638.47
2022-12-23T08:38:52.728Z,100627.88
2022-12-23T08:41:22.295Z,100634.84
2022-12-23T08:43:49.524Z,100643.56
2022-12-23T08:46:16.301Z,100634.84
2022-12-23T08:48:48.863Z,100637.66
2022-12-23T08:51:18.744Z,100637.66
2022-12-23T08:53:46.136Z,100633.16
2022-12-23T08:56:18.608Z,100623.03
2022-12-23T08:58:47.933Z,100618.50
2022-12-23T09:01:17.403Z,100606.50
2022-12-23T09:03:45.134Z,100608.38
2022-12-23T09:06:14.830Z,100605.75
2022-12-23T09:08:42.465Z,100598.75
2022-12-23T09:11:10.209Z,100594.22
2022-12-23T09:13:38.507Z,100595.00
2022-12-23T09:16:06.600Z,100592.44
2022-12-23T09:18:34.112Z,100579.03
2022-12-23T09:21:02.834Z,100581.50
2022-12-23T09:23:29.668Z,100582.34
2022-12-23T09:25:56.560Z,100579.16
2022-12-23T09:28:23.998Z,100581.00
2022-12-23T09:30:52.641Z,100584.09
2022-12-23T09:33:19.899Z,100577.78
2022-12-23T09:35:46.765Z,100582.94
2022-12-23T09:38:13.713Z,100577.03
2022-12-23T09:40:42.368Z,100575.25
2022-12-23T09:43:20.510Z,100586.00
2022-12-23T09:46:09.665Z,100568.53
2022-12-23T09:48:41.238Z,100569.22
2022-12-23T09:51:10.690Z,100552.75
2022-12-23T09:53:48.500Z,100555.31
2022-12-23T09:56:23.175Z,100559.03
2022-12-23T09:59:01.878Z,100559.22
2022-12-23T10:01:33.756Z,100556.69
2022-12-23T10:04:37.047Z,100537.59
2022-12-23T10:07:17.543Z,100562.09
2022-12-23T10:09:49.189Z,100547.41
2022-12-23T10:12:27.228Z,100552.75
2022-12-23T10:14:58.628Z,100549.44
2022-12-23T10:17:31.612Z,100542.28
2022-12-23T10:20:02.225Z,100530.25
2022-12-23T10:22:36.742Z,100527.91
2022-12-23T10:25:11.030Z,100544.09
2022-12-23T10:27:40.204Z,100533.19
2022-12-23T10:30:34.281Z,100519.72
2022-12-23T10:33:08.861Z,100513.75
2022-12-23T10:35:54.028Z,100526.38
2022-12-23T10:38:33.244Z,100528.31
2022-12-23T10:41:09.446Z,100518.53
2022-12-23T10:43:50.213Z,100519.03
2022-12-23T10:46:28.230Z,100509.41
2022-12-23T10:49:03.757Z,100497.75
2022-12-23T10:51:34.292Z,100489.25
2022-12-23T10:54:06.161Z,100491.72
2022-12-23T10:56:33.101Z,100481.84
2022-12-23T10:59:01.165Z,100471.97
2022-12-23T11:01:30.308Z,100452.50
2022-12-23T11:04:06.224Z,100458.00
2022-12-23T11:06:38.081Z,100451.13
2022-12-23T11:09:06.346Z,100453.34
2022-12-23T11:11:53.327Z,100447.22
2022-12-23T11:14:34.898Z,100444.63
2022-12-23T11:17:02.086Z,100438.50
2022-12-23T11:19:30.286Z,100432.06
2022-12-23T11:21:59.024Z,100433.91
2022-12-23T11:24:27.312Z,100421.84
2022-12-23T11:27:00.793Z,100413.31
2022-12-23T11:29:31.111Z,100411.47
2022-12-23T11:31:58.123Z,100411.28
2022-12-23T11:34:27.133Z,100407.53
2022-12-23T11:37:01.807Z,100402.59
2022-12-23T11:39:34.434Z,100402.34
2022-12-23T11:42:11.948Z,100394.63
2022-12-23T11:44:42.506Z,100393.00
2022-12-23T11:47:35.883Z,100392.66
2022-12-23T11:50:26.837Z,100380.03
2022-12-23T11:53:00.896Z,100378.31
2022-12-23T11:55:33.273Z,100372.78
2022-12-23T11:58:02.131Z,100368.38
2022-12-23T12:00:35.349Z,100360.44
2022-12-23T12:03:05.094Z,100348.59
2022-12-23T12:05:33.921Z,100352.28
2022-12-23T12:08:05.938Z,100340.31
2022-12-23T12:10:35.374Z,100337.34
2022-12-23T12:13:04.994Z,100335.28
2022-12-23T12:15:44.780Z,100325.66
2022-12-23T12:18:15.285Z,100323.63
2022-12-23T12:20:45.691Z,100311.34
2022-12-23T12:23:18.648Z,100316.63
2022-12-23T12:25:50.699Z,100314.66
2022-12-23T12:28:20.228Z,100309.56
2022-12-23T12:30:50.864Z,100305.22
2022-12-23T12:33:21.305Z,100305.13
2022-12-23T12:35:54.288Z,100295.59
2022-12-23T12:38:25.979Z,100282.56
2022-12-23T12:40:57.391Z,100289.47
2022-12-23T12:43:31.042Z,100274.38
2022-12-23T12:46:11.831Z,100274.47
2022-12-23T12:48:48.045Z,100273.53
2022-12-23T12:51:23.095Z,100268.91
2022-12-23T12:54:14.332Z,100262.09
2022-12-23T12:56:46.524Z,100254.63
2022-12-23T12:59:17.220Z,100249.53
2022-12-23T13:01:53.312Z,100253.97
2022-12-23T13:04:43.149Z,100233.50
2022-12-23T13:07:18.607Z,100242.81
2022-12-23T13:09:59.087Z,100231.53
2022-12-23T13:12:43.006Z,100230.47
2022-12-23T13:15:22.109Z,100225.13
2022-12-23T13:18:04.099Z,100224.00
2022-12-23T13:20:36.824Z,100221.63
2022-12-23T13:23:41.866Z,100225.19
2022-12-23T13:26:10.032Z,100217.41
2022-12-23T13:28:45.355Z,100207.03
2022-12-23T13:31:24.021Z,100206.06
2022-12-23T13:33:58.891Z,100209.09
2022-12-23T13:36:42.322Z,100209.47
2022-12-23T13:39:30.455Z,100194.84
2022-12-23T13:42:05.737Z,100199.75
2022-12-23T13:44:33.756Z,100201.53
2022-12-23T13:47:09.671Z,100146.69
2022-12-23T13:49:52.977Z,100188.94
2022-12-23T13:52:32.109Z,100190.22
2022-12-23T13:55:11.628Z,100192.66
2022-12-23T13:57:49.333Z,100194.19
2022-12-23T14:00:26.709Z,100184.28
2022-12-23T14:03:06.092Z,100179.84
2022-12-23T14:05:36.736Z,100179.66
2022-12-23T14:08:06.667Z,100181.22
2022-12-23T14:10:34.888Z,100184.00
2022-12-23T14:13:05.171Z,100174.00
2022-12-23T14:15:55.403Z,100176.16
2022-12-23T14:19:06.981Z,100175.66
2022-12-23T14:21:44.097Z,100172.81
2022-12-23T14:24:44.633Z,100161.72
2022-12-23T14:27:31.156Z,100172.75
2022-12-23T14:30:09.924Z,100171.16
2022-12-23T14:32:43.980Z,100158.97
2022-12-23T14:35:26.543Z,100159.81
2022-12-23T14:38:22.811Z,100147.75
2022-12-23T14:40:53.147Z,100156.25
2022-12-23T14:43:57.484Z,100148.19
2022-12-23T14:46:54.274Z,100143.22
2022-12-23T14:49:38.843Z,100140.59
2022-12-23T14:52:48.434Z,100136.97
2022-12-23T14:55:47.050Z,100139.81
2022-12-23T14:58:37.805Z,100137.78
2022-12-23T15:01:10.348Z,100143.44
2022-12-23T15:03:44.608Z,100143.00
2022-12-23T15:06:16.427Z,100153.56
2022-12-23T15:08:46.094Z,100147.81
2022-12-23T15:11:21.422Z,100146.09
2022-12-23T15:13:50.990Z,100141.38
2022-12-23T15:16:18.271Z,100145.81
2022-12-23T15:18:58.051Z,100139.69
2022-12-23T15:21:32.610Z,100135.38
2022-12-23T15:24:00.820Z,100131.00
2022-12-23T15:26:31.286Z,100119.81
2022-12-23T15:29:00.382Z,100128.69
2022-12-23T15:31:31.135Z,100122.94
2022-12-23T15:34:07.820Z,100134.25
2022-12-23T15:36:38.033Z,100128.84
2022-12-23T15:39:09.999Z,100128.84
2022-12-23T15:41:43.519Z,100130.56
2022-12-23T15:44:15.581Z,100126.31
2022-12-23T15:46:43.107Z,100126.13
2022-12-23T15:49:12.254Z,100131.59
2022-12-23T15:52:06.347Z,100142.91
2022-12-23T15:54:34.086Z,100143.66
2022-12-23T15:57:03.950Z,100149.03
2022-12-23T15:59:36.848Z,100145.34
2022-12-23T16:02:32.722Z,100142.44
2022-12-23T16:05:01.663Z,100142.72
2022-12-23T16:07:34.516Z,100152.34
2022-12-23T16:10:04.427Z,100146.13
2022-12-23T16:12:33.877Z,100153.06
2022-12-23T16:15:01.129Z,100143.28
2022-12-23T16:17:33.436Z,100139.69
2022-12-23T16:20:24.671Z,100125.47
2022-12-23T16:22:53.419Z,100126.19
2022-12-23T16:25:24.803Z,100124.06
2022-12-23T16:27:56.810Z,100123.13
2022-12-23T16:30:29.139Z,100128.19
2022-12-23T16:32:58.783Z,100126.41
2022-12-23T16:35:48.063Z,100131.56
2022-12-23T16:38:18.312Z,100131.50
2022-12-23T16:40:47.688Z,100140.16
2022-12-23T16:43:16.006Z,100137.81
2022-12-23T16:45:44.972Z,100131.19
2022-12-23T16:48:19.060Z,100141.19
2022-12-23T16:50:46.608Z,100136.03
2022-12-23T16:53:15.688Z,100153.19
2022-12-23T16:55:50.280Z,100139.41
2022-12-23T16:58:19.680Z,100149.03
2022-12-23T17:00:46.727Z,100149.22
2022-12-23T17:03:16.886Z,100150.53
2022-12-23T17:05:44.168Z,100149.59
2022-12-23T17:08:10.951Z,100162.88
2022-12-23T17:10:41.299Z,100152.53
2022-12-23T17:13:18.247Z,100155.81
2022-12-23T17:15:45.360Z,100161.03
2022-12-23T17:18:13.348Z,100161.03
2022-12-23T17:20:41.286Z,100158.56
2022-12-23T17:23:19.243Z,100158.94
2022-12-23T17:25:47.560Z,100155.75
2022-12-23T17:28:15.718Z,100158.94
2022-12-23T17:30:42.855Z,100145.72
2022-12-23T17:33:16.389Z,100153.47
2022-12-23T17:35:43.227Z,100143.66
2022-12-23T17:38:13.651Z,100145.94
2022-12-23T17:40:41.296Z,100138.53
2022-12-23T17:43:13.810Z,100134.22
2022-12-23T17:45:40.909Z,100135.06
2022-12-23T17:48:14.851Z,100138.28
2022-12-23T17:50:45.579Z,100129.06
2022-12-23T17:53:14.435Z,100138.97
2022-12-23T17:55:41.730Z,100139.50
2022-12-23T17:58:10.346Z,100141.56
2022-12-23T18:00:37.897Z,100140.72
2022-12-23T18:03:05.815Z,100140.44
2022-12-23T18:05:35.433Z,100133.00
2022-12-23T18:08:03.068Z,100133.28
2022-12-23T18:10:33.986Z,100130.53
2022-12-23T18:13:03.688Z,100126.94
2022-12-23T18:15:34.918Z,100124.22
2022-12-23T18:18:09.625Z,100119.81
2022-12-23T18:20:36.455Z,100128.16
2022-12-23T18:23:03.375Z,100140.34
2022-12-23T18:25:30.392Z,100139.69
2022-12-23T18:27:57.251Z,100145.91
2022-12-23T18:30:24.391Z,100149.66
2022-12-23T18:32:52.641Z,100143.66
2022-12-23T18:35:26.674Z,100139.09
2022-12-23T18:37:53.987Z,100137.63
2022-12-23T18:40:21.035Z,100125.91
2022-12-23T18:42:48.472Z,100122.81
2022-12-23T18:45:28.215Z,100130.44
2022-12-23T18:47:56.766Z,100139.03
2022-12-23T18:50:24.004Z,100127.53
2022-12-23T18:52:51.031Z,100137.78
2022-12-23T18:55:18.520Z,100146.47
2022-12-23T18:57:45.321Z,100140.41
2022-12-23T19:00:14.290Z,100141.34
2022-12-23T19:02:41.231Z,100133.44
2022-12-23T19:05:15.314Z,100127.16
2022-12-23T19:07:42.521Z,100143.25
2022-12-23T19:10:14.294Z,100142.41
2022-12-23T19:12:41.110Z,100131.38
2022-12-23T19:15:08.811Z,100139.63
2022-12-23T19:17:35.588Z,100130.19
2022-12-23T19:20:02.310Z,100130.63
2022-12-23T19:22:30.739Z,100143.75
2022-12-23T19:25:05.729Z,100140.91
2022-12-23T19:27:33.404Z,100138.09
2022-12-23T19:30:00.427Z,100142.34
2022-12-23T19:32:27.211Z,100145.25
2022-12-23T19:34:54.049Z,100144.41
2022-12-23T19:37:20.936Z,100150.81
2022-12-23T19:39:50.272Z,100152.78
2022-12-23T19:42:17.392Z,100154.03
2022-12-23T19:44:44.296Z,100163.75
2022-12-23T19:47:11.095Z,100166.56
2022-12-23T19:49:38.193Z,100169.03
2022-12-23T19:52:05.518Z,100168.28
2022-12-23T19:54:33.043Z,100167.81
2022-12-23T19:57:01.529Z,100171.94
2022-12-23T19:59:28.363Z,100174.31
2022-12-23T20:01:55.347Z,100184.75
2022-12-23T20:04:24.971Z,100183.63
2022-12-23T20:06:52.017Z,100178.84
2022-12-23T20:09:18.876Z,100178.44
2022-12-23T20:11:47.756Z,100185.06
2022-12-23T20:14:17.485Z,100176.47
2022-12-23T20:16:45.017Z,100177.88
2022-12-23T20:19:11.823Z,100185.63
2022-12-23T20:21:38.749Z,100200.25
2022-12-23T20:24:06.816Z,100196.28
2022-12-23T20:26:34.202Z,100201.75
2022-12-23T20:29:03.630Z,100194.97
2022-12-23T20:31:34.197Z,100204.47
2022-12-23T20:34:01.728Z,100185.72
2022-12-23T20:36:30.491Z,100206.28
2022-12-23T20:38:57.612Z,100206.50
2022-12-23T20:41:26.471Z,100204.88
2022-12-23T20:44:31.552Z,100206.00
2022-12-23T20:46:42.754Z,100210.22
2022-12-23T20:49:09.522Z,100209.75
2022-12-23T20:51:36.475Z,100199.75
2022-12-23T20:54:03.444Z,100206.50
2022-12-23T20:56:31.665Z,100201.09
2022-12-23T20:59:00.433Z,100228.03
2022-12-23T21:01:30.153Z,100231.81
2022-12-23T21:04:01.244Z,100233.06
2022-12-23T21:06:29.325Z,100234.75
2022-12-23T21:08:59.011Z,100232.88
2022-12-23T21:11:27.934Z,100232.13
2022-12-23T21:13:57.823Z,100233.91
2022-12-23T21:16:29.481Z,100229.69
2022-12-23T21:18:58.540Z,100231.84
2022-12-23T21:21:27.019Z,100231.06
2022-12-23T21:23:55.154Z,100233.16
2022-12-23T21:26:23.769Z,100239.09
2022-12-23T21:28:52.141Z,100240.91
2022-12-23T21:31:21.471Z,100238.19
2022-12-23T21:33:49.660Z,100236.34
2022-12-23T21:36:21.081Z,100246.72
2022-12-23T21:38:49.332Z,100259.00
2022-12-23T21:41:19.056Z,100260.13
2022-12-23T21:43:45.820Z,100263.53
2022-12-23T21:46:15.110Z,100269.88
2022-12-23T21:48:43.078Z,100284.09
2022-12-23T21:51:12.481Z,100284.34
2022-12-23T21:53:42.736Z,100286.13
2022-12-23T21:56:12.443Z,100291.34
2022-12-23T21:58:39.442Z,100300.78
2022-12-23T22:01:08.009Z,100293.97
2022-12-23T22:03:35.352Z,100300.19
2022-12-23T22:06:10.143Z,100302.84
2022-12-23T22:08:37.538Z,100309.22
2022-12-23T22:11:08.857Z,100310.34
2022-12-23T22:13:36.490Z,100319.69
2022-12-23T22:16:05.070Z,100326.53
2022-12-23T22:18:32.153Z,100331.81
2022-12-23T22:20:59.063Z,100331.63
2022-12-23T22:23:26.057Z,100346.59
2022-12-23T22:25:53.908Z,100350.03
2022-12-23T22:28:22.463Z,100342.84
2022-12-23T22:30:49.534Z,100347.94
2022-12-23T22:33:16.597Z,100355.88
2022-12-23T22:35:43.827Z,100351.53
2022-12-23T22:38:10.640Z,100347.38
2022-12-23T22:40:37.596Z,100343.03
2022-12-23T22:43:04.401Z,100361.34
2022-12-23T22:45:32.775Z,100362.09
2022-12-23T22:48:00.116Z,100354.25
2022-12-23T22:50:27.090Z,100369.84
2022-12-23T22:52:53.913Z,100373.16
2022-12-23T22:55:20.894Z,100377.47
2022-12-23T22:57:47.784Z,100378.91
2022-12-23T23:00:15.122Z,100368.34
2022-12-23T23:02:43.270Z,100373.63
2022-12-23T23:05:13.030Z,100382.31
2022-12-23T23:07:40.325Z,100384.84
2022-12-23T23:10:08.634Z,100381.44
2022-12-23T23:12:35.481Z,100381.44
2022-12-23T23:15:02.328Z,100376.47
2022-12-23T23:17:29.156Z,100379.13
2022-12-23T23:19:57.336Z,100365.41
2022-12-23T23:22:25.492Z,100369.50
2022-12-23T23:24:52.683Z,100368.41
2022-12-23T23:27:19.566Z,100376.38
2022-12-23T23:29:46.824Z,100377.81
2022-12-23T23:32:13.693Z,100383.81
2022-12-23T23:34:42.265Z,100391.69
2022-12-23T23:37:10.581Z,100383.94
2022-12-23T23:39:37.425Z,100390.00
2022-12-23T23:42:04.703Z,100394.47
2022-12-23T23:44:31.563Z,100393.19
2022-12-23T23:46:58.444Z,100395.41
2022-12-23T23:49:25.578Z,100402.94
2022-12-23T23:51:52.463Z,100411.63
2022-12-23T23:54:20.685Z,100413.75
2022-12-23T23:56:47.507Z,100411.53
2022-12-23T23:59:14.514Z,100406.16
